Αρχική σελίδα
METAR-TAF:

METAR-TAF

Αεροδρόμια :

Οδησσός, Ουκρανία

γεωγραφικό πλάτος: 46-26N, γεωγραφικό μήκος: 030-46E, υψόμετρο: 42 μ

Παρών καιρός

Η αναφορά έγινε 34 λεπτά πριν, στις 17:00 UTC
Άνεμος 4 kt από BA
Θερμοκρασία 27°C
Υγρασία 23%
Πίεση 1010 hPa
Ορατότητα 10 χλμ και άνω
Δεν υπάρχουν νέφη με βάση κάτω από τα 1500 μ. και δεν υπάρχουν νέφη σωρειτομελανίτες.

METAR: UKOO 181700Z 04002MPS CAVOK 27/04 Q1010 R34/090060 NOSIG

Χρόνος: 20:34 (17:34 UTC)

Πρόγνωση Καιρού

Η αναφορά έγινε 6 ώρες και 32 λεπτά πριν, στις 11:02 UTC
Η πρόγνωση ισχύει από τις 18 στις 12 UTC έως τις 19 στις 12 UTC
Άνεμος 6 kt από Α
Ορατότητα: 6000 μ
Διάσπαρτα νέφη σε ύψος 1200 πόδια
Διάσπαρτα νέφη σε ύψος 2000 πόδια, Σωρειτομελανίτες.

TAF: UKOO 181102Z 1812/1912 08003MPS 6000 SCT012 SCT020CB TX30/1812Z TN20/1902Z

Μετεωρολογικές αναφορές και προγνώσεις για περισσότερα από 4000 αεροδρόμια (δελτία METAR και TAF).

Οι διαθέσιμοι σταθμοί απεικονίζονται στο χάρτη με κίτρινες και κόκκινες κουκκίδες.

Μετακινήστε το ποντίκι πάνω από τις κουκκίδες για να δείτε το όνομα του σταθμού.

Στη συνέχεια, κάντε κλικ για να δείτε τις μετεωρολογικές αναφορές και τις προγνώσεις καιρού.

Για να αλλάξετε το χάρτη: κάντε κλικ στα πράσινα κουμπιά με τον μαύρο σταυρό για να ζουμάρετε, στο πράσινο κουμπί με την παύλα για να αφαιρέσετε το ζουμ ή στα πράσινα βέλη για να αντιπαραβάλλετε χάρτες.


METAR-TAF: